Time;durP1;ratioP1;P1;durP2;ratioP2;P2;SDS_P1;SDS_P2;PMS_P1;PMS_P2;Temp;Humidity;BMP_temperature;BMP_pressure;BME280_temperature;BME280_humidity;BME280_pressure;Samples;Min_cycle;Max_cycle;Signal;HPM_P1;HPM_P2
2022/07/15 00:02:23;;;;;;;3.10;1.92;;;20.20;74.60;;;;;;5072610;28;20205;-59
2022/07/15 00:04:50;;;;;;;4.68;2.10;;;20.10;74.30;;;;;;5072816;28;20229;-59
2022/07/15 00:07:17;;;;;;;2.30;1.85;;;20.10;74.30;;;;;;5073024;28;20387;-60
2022/07/15 00:12:28;;;;;;;7.43;1.83;;;20.10;74.30;;;;;;5072701;28;20203;-60
2022/07/15 00:14:56;;;;;;;5.90;2.10;;;20.00;74.40;;;;;;5072605;28;20339;-59
2022/07/15 00:17:23;;;;;;;4.93;2.08;;;20.00;74.40;;;;;;5072774;28;20209;-59
2022/07/15 00:19:49;;;;;;;6.05;2.08;;;20.00;74.40;;;;;;5072470;28;20205;-59
2022/07/15 00:22:16;;;;;;;5.15;1.98;;;19.90;74.50;;;;;;5072398;28;20229;-59
2022/07/15 00:24:43;;;;;;;5.15;2.15;;;19.90;75.80;;;;;;5072432;28;20232;-59
2022/07/15 00:27:11;;;;;;;6.22;1.95;;;19.80;74.70;;;;;;5072412;28;20209;-59
2022/07/15 00:29:38;;;;;;;3.42;1.58;;;19.80;75.00;;;;;;5072716;28;20567;-60
2022/07/15 00:32:06;;;;;;;5.78;1.95;;;19.80;75.80;;;;;;5072539;28;20208;-65
2022/07/15 00:34:33;;;;;;;5.07;2.40;;;19.70;77.20;;;;;;5072428;28;20723;-60
2022/07/15 00:37:00;;;;;;;3.63;2.40;;;19.60;79.90;;;;;;5073019;28;20213;-60
2022/07/15 00:39:26;;;;;;;4.85;2.15;;;19.60;80.50;;;;;;5072784;28;20205;-60
2022/07/15 00:41:53;;;;;;;3.83;2.03;;;19.50;80.40;;;;;;5072153;28;20672;-59
2022/07/15 00:44:20;;;;;;;5.25;2.00;;;19.40;80.60;;;;;;5072685;28;20677;-60
2022/07/15 00:46:48;;;;;;;5.70;2.03;;;19.30;80.90;;;;;;5073062;28;20219;-59
2022/07/15 00:49:16;;;;;;;2.88;1.95;;;19.30;82.10;;;;;;5073441;28;20209;-60
2022/07/15 00:51:47;;;;;;;2.92;2.10;;;19.20;82.70;;;;;;5073909;28;20200;-59
2022/07/15 00:54:15;;;;;;;2.83;2.00;;;19.10;83.30;;;;;;5074511;28;20564;-59
2022/07/15 00:56:45;;;;;;;5.50;2.40;;;19.00;84.10;;;;;;5074305;28;20223;-60
2022/07/15 00:59:14;;;;;;;4.22;2.00;;;18.90;84.50;;;;;;5074572;28;20207;-59
2022/07/15 01:01:42;;;;;;;2.28;2.00;;;18.90;85.00;;;;;;5077442;28;20211;-60
2022/07/15 01:04:11;;;;;;;4.60;2.20;;;18.80;85.20;;;;;;5077536;28;20231;-59
2022/07/15 01:06:40;;;;;;;3.22;2.28;;;18.80;85.30;;;;;;5077066;28;20209;-59
2022/07/15 01:09:07;;;;;;;4.05;2.20;;;18.80;85.60;;;;;;5077560;28;20212;-60
2022/07/15 01:11:34;;;;;;;5.13;1.67;;;18.70;86.10;;;;;;5077699;28;20201;-60
2022/07/15 01:14:02;;;;;;;3.78;2.03;;;18.70;87.00;;;;;;5077751;28;20208;-60
2022/07/15 01:16:29;;;;;;;3.40;1.80;;;18.60;87.60;;;;;;5077454;28;20237;-59
2022/07/15 01:18:56;;;;;;;7.22;2.28;;;18.50;88.20;;;;;;5077368;28;20232;-59
2022/07/15 01:21:25;;;;;;;5.55;2.03;;;18.40;89.00;;;;;;5077568;28;20209;-59
2022/07/15 01:23:52;;;;;;;3.90;2.08;;;18.40;89.60;;;;;;5076633;28;20232;-59
2022/07/15 01:26:18;;;;;;;3.78;1.92;;;18.30;90.10;;;;;;5076489;28;20228;-60
2022/07/15 01:28:45;;;;;;;5.43;1.90;;;18.30;90.20;;;;;;5076792;28;20205;-60
2022/07/15 01:31:12;;;;;;;2.80;2.10;;;18.20;90.10;;;;;;5076410;28;20209;-60
2022/07/15 01:33:39;;;;;;;4.30;2.03;;;18.10;90.20;;;;;;5076630;28;20716;-60
2022/07/15 01:36:07;;;;;;;2.75;1.75;;;18.10;90.60;;;;;;5076808;28;20262;-60
2022/07/15 01:38:35;;;;;;;4.03;2.15;;;17.90;91.20;;;;;;5077423;28;20660;-60
2022/07/15 01:41:02;;;;;;;5.10;2.55;;;17.90;91.40;;;;;;5076150;28;20209;-60
2022/07/15 01:43:29;;;;;;;4.10;2.00;;;17.90;91.70;;;;;;5075882;28;20692;-59
2022/07/15 01:45:56;;;;;;;3.45;2.13;;;17.90;92.00;;;;;;5075475;28;20240;-59
2022/07/15 01:51:07;;;;;;;2.58;1.90;;;17.70;92.30;;;;;;5075577;28;20278;-59
2022/07/15 01:53:36;;;;;;;2.90;1.90;;;17.70;92.70;;;;;;5075342;28;20292;-60
2022/07/15 01:56:03;;;;;;;4.40;2.38;;;17.60;93.00;;;;;;5075325;28;20358;-59
2022/07/15 01:58:29;;;;;;;2.45;1.60;;;17.60;93.50;;;;;;5076103;28;20699;-59
2022/07/15 02:00:56;;;;;;;2.78;2.05;;;17.50;94.00;;;;;;5075578;28;20577;-59
2022/07/15 02:03:23;;;;;;;3.35;1.90;;;17.40;94.40;;;;;;5075178;28;20224;-60
2022/07/15 02:05:50;;;;;;;4.07;2.00;;;17.30;94.40;;;;;;5075389;28;20229;-59
2022/07/15 02:08:16;;;;;;;2.97;1.50;;;17.30;94.00;;;;;;5075560;28;20205;-59
2022/07/15 02:10:45;;;;;;;3.55;1.65;;;17.30;93.60;;;;;;5075027;28;20208;-59
2022/07/15 02:13:14;;;;;;;5.65;1.90;;;17.30;93.50;;;;;;5074755;28;20220;-59
2022/07/15 02:15:42;;;;;;;3.22;2.00;;;17.30;93.80;;;;;;5075536;28;20221;-59
2022/07/15 02:18:11;;;;;;;4.03;2.03;;;17.30;94.70;;;;;;5075470;28;20688;-59
2022/07/15 02:20:38;;;;;;;3.00;1.85;;;17.20;95.20;;;;;;5075235;28;20582;-59
2022/07/15 02:23:05;;;;;;;5.47;2.13;;;17.20;96.00;;;;;;5075063;28;20577;-59
2022/07/15 02:25:33;;;;;;;3.47;1.80;;;17.10;96.00;;;;;;5074794;28;20236;-59
2022/07/15 02:28:04;;;;;;;3.33;2.00;;;17.10;96.40;;;;;;5075057;28;20665;-59
2022/07/15 02:30:34;;;;;;;4.72;2.10;;;17.00;96.80;;;;;;5075318;28;20205;-59
2022/07/15 02:33:01;;;;;;;3.20;2.08;;;16.90;97.20;;;;;;5074320;28;20205;-59
2022/07/15 02:35:28;;;;;;;4.27;2.10;;;16.80;98.10;;;;;;5074612;28;20224;-59
2022/07/15 02:37:55;;;;;;;3.95;2.00;;;16.70;98.60;;;;;;5074487;28;20205;-60
2022/07/15 02:40:22;;;;;;;4.93;1.95;;;16.70;98.90;;;;;;5074302;28;20685;-59
2022/07/15 02:42:50;;;;;;;3.08;1.80;;;16.70;99.10;;;;;;5074046;28;20255;-59
2022/07/15 02:45:19;;;;;;;2.65;1.67;;;16.60;99.10;;;;;;5073853;28;20229;-59
2022/07/15 02:47:46;;;;;;;2.97;1.83;;;16.60;99.10;;;;;;5073951;28;20209;-59
2022/07/15 02:50:13;;;;;;;4.00;2.10;;;16.60;99.30;;;;;;5074351;28;20205;-59
2022/07/15 02:52:40;;;;;;;4.37;1.90;;;16.50;99.50;;;;;;5073988;28;20243;-59
2022/07/15 02:55:08;;;;;;;5.90;2.13;;;16.40;99.90;;;;;;5074206;28;20232;-59
2022/07/15 02:57:35;;;;;;;4.32;2.08;;;16.40;99.90;;;;;;5074181;28;20215;-59
2022/07/15 03:00:02;;;;;;;3.03;1.87;;;16.30;99.90;;;;;;5074189;28;20208;-59
2022/07/15 03:02:30;;;;;;;3.80;2.07;;;16.30;99.90;;;;;;5073697;28;20231;-60
2022/07/15 03:04:57;;;;;;;4.30;1.90;;;16.20;99.90;;;;;;5073821;28;20228;-59
2022/07/15 03:07:24;;;;;;;3.07;1.83;;;16.20;99.90;;;;;;5074330;28;20239;-57
2022/07/15 03:09:51;;;;;;;3.27;1.90;;;16.10;99.90;;;;;;5074570;28;20204;-59
2022/07/15 03:12:18;;;;;;;4.20;1.75;;;16.00;99.90;;;;;;5074187;28;20204;-58
2022/07/15 03:14:44;;;;;;;2.42;1.70;;;15.90;99.90;;;;;;5074415;28;20232;-58
2022/07/15 03:17:11;;;;;;;5.47;1.80;;;16.00;99.90;;;;;;5074226;28;20307;-59
2022/07/15 03:19:39;;;;;;;2.87;1.80;;;15.90;99.90;;;;;;5074714;28;20205;-59
2022/07/15 03:22:06;;;;;;;3.83;1.83;;;16.00;99.90;;;;;;5073707;28;20653;-59
2022/07/15 03:24:34;;;;;;;2.20;1.60;;;15.90;99.90;;;;;;5074564;28;20233;-59
2022/07/15 03:27:01;;;;;;;5.37;2.10;;;15.90;99.90;;;;;;5075078;28;20683;-58
2022/07/15 03:29:28;;;;;;;4.57;2.17;;;15.80;99.90;;;;;;5074775;28;20212;-59
2022/07/15 03:31:56;;;;;;;3.97;1.90;;;15.80;99.90;;;;;;5074224;28;20255;-59
2022/07/15 03:34:25;;;;;;;5.53;1.70;;;15.80;99.90;;;;;;5074933;28;20231;-58
2022/07/15 03:36:53;;;;;;;2.23;1.60;;;15.70;99.90;;;;;;5073511;28;20661;-59
2022/07/15 03:39:20;;;;;;;4.77;2.00;;;15.70;99.90;;;;;;5073963;28;20219;-59
2022/07/15 03:41:47;;;;;;;4.13;1.97;;;15.80;99.90;;;;;;5073942;28;20580;-60
2022/07/15 03:44:14;;;;;;;4.43;2.10;;;15.80;99.90;;;;;;5073984;28;20225;-59
2022/07/15 03:46:41;;;;;;;6.17;2.47;;;15.80;99.90;;;;;;5074405;28;20211;-59
2022/07/15 03:49:08;;;;;;;3.27;1.87;;;15.80;99.90;;;;;;5074168;28;20298;-59
2022/07/15 03:51:35;;;;;;;3.20;1.73;;;15.70;99.90;;;;;;5074962;28;20208;-59
2022/07/15 03:54:04;;;;;;;4.07;2.10;;;15.80;99.90;;;;;;5074316;28;20237;-58
2022/07/15 03:56:32;;;;;;;2.03;1.77;;;15.80;99.90;;;;;;5074628;28;20220;-58
2022/07/15 03:58:59;;;;;;;5.80;2.20;;;15.80;99.90;;;;;;5075264;28;20197;-58
2022/07/15 04:01:26;;;;;;;5.00;2.10;;;15.80;99.90;;;;;;5076027;28;20672;-58
2022/07/15 04:03:54;;;;;;;3.50;2.40;;;15.80;99.90;;;;;;5074489;28;20212;-59
2022/07/15 04:06:21;;;;;;;6.33;3.40;;;15.90;99.90;;;;;;5073581;28;20240;-58
2022/07/15 04:08:49;;;;;;;7.77;5.00;;;15.90;99.90;;;;;;5074188;28;20204;-59
2022/07/15 04:11:18;;;;;;;8.23;5.43;;;16.00;99.90;;;;;;5076182;28;20243;-58
2022/07/15 04:13:46;;;;;;;10.03;6.10;;;16.00;99.90;;;;;;5074239;28;20636;-58
2022/07/15 04:16:13;;;;;;;11.33;6.47;;;16.10;99.90;;;;;;5073920;28;20241;-59
2022/07/15 04:18:40;;;;;;;13.83;6.77;;;16.00;99.90;;;;;;5076811;28;20209;-59
2022/07/15 04:21:07;;;;;;;13.50;7.83;;;16.10;99.90;;;;;;5076041;28;20205;-59
2022/07/15 04:23:34;;;;;;;12.37;7.40;;;16.20;99.90;;;;;;5073853;28;20609;-59
2022/07/15 04:26:01;;;;;;;6.68;4.88;;;16.20;99.90;;;;;;5073238;28;20239;-59
2022/07/15 04:28:29;;;;;;;8.63;4.53;;;16.20;99.90;;;;;;5072974;28;20661;-59
2022/07/15 04:30:55;;;;;;;7.03;3.90;;;16.20;99.90;;;;;;5073188;28;20209;-59
2022/07/15 04:33:23;;;;;;;4.93;3.20;;;16.20;99.90;;;;;;5073588;28;20208;-58
2022/07/15 04:35:49;;;;;;;5.07;3.20;;;16.30;99.90;;;;;;5076812;28;20316;-59
2022/07/15 04:38:16;;;;;;;5.47;2.40;;;16.30;99.90;;;;;;5077161;28;20205;-59
2022/07/15 04:40:43;;;;;;;3.23;2.10;;;16.20;99.90;;;;;;5077248;28;20693;-59
2022/07/15 04:43:10;;;;;;;3.67;2.23;;;16.20;99.90;;;;;;5077817;28;20200;-58
2022/07/15 04:45:38;;;;;;;3.90;2.30;;;16.30;99.90;;;;;;5077256;28;20278;-59
2022/07/15 04:50:45;;;;;;;3.33;1.67;;;16.30;99.90;;;;;;5078175;28;20204;-59
2022/07/15 04:50:52;;;;;;;2.30;1.70;;;16.40;99.90;;;;;;5078517;28;20736;-59
2022/07/15 04:53:19;;;;;;;4.43;2.20;;;16.60;99.90;;;;;;5078491;28;20276;-59
2022/07/15 04:55:46;;;;;;;3.73;1.77;;;16.70;99.90;;;;;;5078166;28;20227;-59
2022/07/15 04:58:14;;;;;;;4.18;2.08;;;16.80;99.90;;;;;;5076813;28;20586;-59
2022/07/15 05:00:42;;;;;;;5.47;1.83;;;16.80;99.90;;;;;;5076652;28;20252;-59
2022/07/15 05:03:09;;;;;;;4.95;1.92;;;16.90;99.90;;;;;;5076702;28;20208;-59
2022/07/15 05:05:37;;;;;;;4.63;1.95;;;17.10;99.90;;;;;;5077070;28;20640;-60
2022/07/15 05:08:04;;;;;;;6.65;2.63;;;17.10;99.90;;;;;;5076917;28;20224;-59
2022/07/15 05:10:30;;;;;;;3.45;2.10;;;17.20;99.90;;;;;;5076278;28;20201;-59
2022/07/15 05:12:58;;;;;;;6.00;1.67;;;17.30;99.90;;;;;;5076271;28;20232;-59
2022/07/15 05:15:25;;;;;;;2.63;1.65;;;17.50;99.90;;;;;;5076475;28;20307;-59
2022/07/15 05:17:53;;;;;;;4.15;2.30;;;17.60;99.90;;;;;;5076296;28;20208;-58
2022/07/15 05:20:21;;;;;;;3.95;1.50;;;17.90;99.90;;;;;;5076354;28;20216;-58
2022/07/15 05:22:49;;;;;;;3.75;1.52;;;18.50;99.90;;;;;;5075862;28;20734;-57
2022/07/15 05:25:16;;;;;;;4.57;1.75;;;20.10;97.20;;;;;;5075798;28;20224;-58
2022/07/15 05:27:44;;;;;;;6.38;1.90;;;22.20;93.00;;;;;;5075177;28;20694;-58
2022/07/15 05:30:12;;;;;;;3.33;1.77;;;24.30;87.10;;;;;;5075420;28;20235;-58
2022/07/15 05:32:39;;;;;;;3.25;1.52;;;26.10;77.50;;;;;;5075371;28;20247;-59
2022/07/15 05:35:08;;;;;;;2.65;1.75;;;26.80;70.80;;;;;;5075545;28;20314;-59
2022/07/15 05:37:38;;;;;;;4.45;2.00;;;26.40;69.40;;;;;;5075579;28;20204;-59
2022/07/15 05:40:06;;;;;;;6.00;1.90;;;25.70;69.10;;;;;;5075315;28;20657;-59
2022/07/15 05:42:33;;;;;;;4.15;1.70;;;25.90;68.70;;;;;;5075009;28;20237;-59
2022/07/15 05:45:00;;;;;;;4.90;1.50;;;27.10;65.30;;;;;;5074190;28;20228;-59
2022/07/15 05:47:27;;;;;;;3.72;1.55;;;28.30;61.80;;;;;;5075143;28;20201;-59
2022/07/15 05:49:55;;;;;;;3.67;1.60;;;29.40;59.10;;;;;;5075185;28;20212;-59
2022/07/15 05:52:23;;;;;;;3.80;2.60;;;30.80;55.30;;;;;;5074864;28;20211;-59
2022/07/15 05:54:50;;;;;;;5.55;1.85;;;32.10;52.30;;;;;;5075156;28;20228;-59
2022/07/15 05:57:17;;;;;;;2.58;1.48;;;33.30;48.90;;;;;;5075188;28;20208;-60
2022/07/15 05:59:43;;;;;;;4.15;1.70;;;34.40;47.60;;;;;;5074879;28;20204;-60
2022/07/15 06:02:11;;;;;;;4.65;1.92;;;35.30;46.00;;;;;;5074259;28;20619;-57
2022/07/15 06:04:37;;;;;;;4.30;1.75;;;35.80;44.40;;;;;;5074422;28;20316;-57
2022/07/15 06:07:04;;;;;;;4.78;2.20;;;36.40;43.10;;;;;;5074464;28;20282;-54
2022/07/15 06:09:32;;;;;;;2.90;1.67;;;37.10;42.20;;;;;;5074458;28;20211;-56
2022/07/15 06:11:59;;;;;;;3.20;1.40;;;37.50;40.80;;;;;;5074200;28;20213;-56
2022/07/15 06:14:26;;;;;;;5.72;2.03;;;37.90;39.60;;;;;;5074775;28;20212;-57
2022/07/15 06:16:53;;;;;;;6.20;1.45;;;38.60;38.30;;;;;;5074568;28;20201;-56
2022/07/15 06:19:20;;;;;;;5.03;2.00;;;39.30;37.60;;;;;;5074343;28;20201;-56
2022/07/15 06:21:47;;;;;;;4.22;1.50;;;39.80;36.80;;;;;;5074475;28;20213;-56
2022/07/15 06:24:13;;;;;;;3.63;1.58;;;40.10;35.90;;;;;;5074045;28;20691;-57
2022/07/15 06:26:41;;;;;;;5.53;1.70;;;39.80;36.20;;;;;;5074356;28;20286;-57
2022/07/15 06:29:08;;;;;;;5.20;1.60;;;40.10;36.10;;;;;;5074296;28;20656;-56
2022/07/15 06:31:35;;;;;;;3.03;1.50;;;40.50;34.90;;;;;;5074315;28;20201;-56
2022/07/15 06:34:02;;;;;;;4.22;1.35;;;40.50;34.90;;;;;;5074055;28;20205;-57
2022/07/15 06:36:29;;;;;;;5.53;1.70;;;39.40;35.70;;;;;;5073833;28;20279;-56
2022/07/15 06:38:56;;;;;;;4.70;2.75;;;39.00;37.00;;;;;;5074207;28;20743;-57
2022/07/15 06:41:23;;;;;;;4.75;1.70;;;39.80;36.40;;;;;;5074496;28;20208;-57
2022/07/15 06:43:51;;;;;;;3.20;1.27;;;40.70;35.20;;;;;;5074411;28;20213;-56
2022/07/15 06:46:18;;;;;;;5.28;1.33;;;41.20;34.20;;;;;;5074026;28;20255;-58
2022/07/15 06:48:45;;;;;;;5.93;2.53;;;41.20;34.00;;;;;;5074293;28;20208;-56
2022/07/15 06:51:12;;;;;;;4.00;2.72;;;41.10;34.10;;;;;;5073957;28;20210;-56
2022/07/15 06:53:38;;;;;;;2.38;1.13;;;40.70;34.60;;;;;;5074069;28;20236;-57
2022/07/15 06:56:06;;;;;;;4.13;1.38;;;40.70;34.20;;;;;;5073439;28;20303;-56
2022/07/15 06:58:32;;;;;;;3.97;1.50;;;41.00;33.60;;;;;;5072966;28;20208;-56
2022/07/15 07:01:01;;;;;;;2.92;1.30;;;40.00;34.10;;;;;;5073420;28;20208;-56
2022/07/15 07:03:28;;;;;;;2.53;1.20;;;39.90;35.00;;;;;;5073313;28;20282;-56
2022/07/15 07:05:55;;;;;;;4.18;1.25;;;40.00;34.60;;;;;;5073360;28;20224;-56
2022/07/15 07:08:22;;;;;;;4.22;1.70;;;40.50;34.70;;;;;;5073526;28;20207;-56
2022/07/15 07:10:49;;;;;;;6.60;1.40;;;41.20;34.00;;;;;;5073453;28;20204;-56
2022/07/15 07:13:16;;;;;;;4.45;1.50;;;41.90;32.60;;;;;;5073006;28;20232;-56
2022/07/15 07:15:43;;;;;;;4.65;1.67;;;42.00;32.50;;;;;;5073007;28;20216;-56
2022/07/15 07:18:12;;;;;;;4.25;2.17;;;41.10;33.40;;;;;;5073243;28;20302;-56
2022/07/15 07:20:43;;;;;;;2.65;1.42;;;40.80;34.10;;;;;;5073148;28;20693;-56
2022/07/15 07:23:09;;;;;;;6.07;1.40;;;40.80;33.00;;;;;;5073123;28;20209;-55
2022/07/15 07:25:36;;;;;;;2.40;1.58;;;39.30;34.90;;;;;;5073013;28;20232;-56
2022/07/15 07:28:03;;;;;;;5.20;1.63;;;38.80;35.30;;;;;;5073046;28;20302;-56
2022/07/15 07:30:30;;;;;;;3.03;1.40;;;39.10;34.90;;;;;;5072840;28;20205;-56
2022/07/15 07:32:57;;;;;;;5.22;1.40;;;38.50;34.60;;;;;;5072812;28;20216;-56
2022/07/15 07:35:25;;;;;;;4.75;1.35;;;38.00;35.30;;;;;;5073350;28;20727;-56
2022/07/15 07:37:52;;;;;;;3.72;1.42;;;38.90;34.30;;;;;;5072771;28;20205;-56
2022/07/15 07:40:19;;;;;;;2.42;1.42;;;38.20;35.60;;;;;;5073168;28;20216;-56
2022/07/15 07:42:46;;;;;;;6.38;1.30;;;38.40;34.70;;;;;;5072606;28;20204;-56
2022/07/15 07:45:13;;;;;;;2.72;1.30;;;38.80;34.60;;;;;;5072613;28;20286;-56
2022/07/15 07:47:41;;;;;;;3.15;1.70;;;38.80;35.00;;;;;;5072695;28;20660;-56
2022/07/15 07:50:09;;;;;;;3.25;1.30;;;37.90;35.60;;;;;;5072823;28;20205;-57
2022/07/15 07:52:38;;;;;;;3.58;1.60;;;37.60;35.80;;;;;;5072364;28;20208;-56
2022/07/15 07:55:05;;;;;;;4.00;1.67;;;37.20;35.70;;;;;;5072616;28;20626;-56
2022/07/15 07:57:33;;;;;;;3.10;1.52;;;36.70;36.50;;;;;;5072791;28;20236;-57
2022/07/15 08:00:00;;;;;;;4.72;1.80;;;36.50;36.90;;;;;;5072485;28;20205;-56
2022/07/15 08:02:27;;;;;;;2.72;1.35;;;37.50;36.00;;;;;;5072232;28;20711;-56
2022/07/15 08:04:53;;;;;;;5.38;2.10;;;38.50;34.40;;;;;;5072269;28;20700;-56
2022/07/15 08:07:21;;;;;;;4.90;1.70;;;38.90;34.90;;;;;;5072521;28;20273;-57
2022/07/15 08:09:50;;;;;;;2.83;1.55;;;39.90;33.40;;;;;;5072349;28;20207;-56
2022/07/15 08:12:17;;;;;;;2.35;1.88;;;39.50;33.50;;;;;;5072911;28;20208;-57
2022/07/15 08:14:44;;;;;;;2.58;1.27;;;39.10;34.00;;;;;;5071932;28;20231;-57
2022/07/15 08:17:11;;;;;;;3.25;1.48;;;38.30;34.30;;;;;;5072618;28;20197;-58
2022/07/15 08:19:38;;;;;;;5.40;1.40;;;38.10;35.00;;;;;;5072412;28;20212;-57
2022/07/15 08:22:05;;;;;;;6.25;1.50;;;38.90;33.40;;;;;;5072418;28;20217;-57
2022/07/15 08:24:32;;;;;;;3.22;1.60;;;39.70;32.30;;;;;;5072381;28;20588;-57
2022/07/15 08:27:01;;;;;;;3.45;1.30;;;40.10;31.70;;;;;;5072342;28;20593;-57
2022/07/15 08:29:28;;;;;;;2.95;1.33;;;40.10;32.10;;;;;;5072324;28;20208;-57
2022/07/15 08:31:55;;;;;;;2.70;1.20;;;40.10;32.30;;;;;;5072188;28;20673;-57
2022/07/15 08:34:22;;;;;;;2.95;1.23;;;39.30;32.50;;;;;;5072113;28;20212;-57
2022/07/15 08:36:49;;;;;;;3.50;1.30;;;38.50;33.10;;;;;;5072037;28;20208;-57
2022/07/15 08:39:16;;;;;;;4.38;1.90;;;38.70;33.00;;;;;;5072370;28;20205;-57
2022/07/15 08:41:43;;;;;;;3.47;1.23;;;38.90;32.60;;;;;;5071895;28;20254;-57
2022/07/15 08:44:11;;;;;;;3.70;1.58;;;39.40;32.00;;;;;;5072399;28;20197;-57
2022/07/15 08:46:41;;;;;;;2.65;1.35;;;39.40;32.00;;;;;;5072699;28;20228;-57
2022/07/15 08:49:13;;;;;;;3.08;1.40;;;38.50;32.60;;;;;;5072613;28;20227;-57
2022/07/15 08:51:43;;;;;;;2.97;1.30;;;37.60;33.80;;;;;;5071957;28;20582;-58
2022/07/15 08:54:11;;;;;;;4.10;1.73;;;36.30;35.00;;;;;;5071479;28;20215;-58
2022/07/15 08:56:38;;;;;;;2.42;1.55;;;34.70;36.50;;;;;;5071680;28;20596;-58
2022/07/15 08:59:06;;;;;;;2.65;1.40;;;32.90;38.90;;;;;;5072298;28;20307;-58
2022/07/15 09:01:42;;;;;;;6.65;2.03;;;31.50;40.60;;;;;;5072362;28;20217;-57
2022/07/15 09:04:08;;;;;;;3.58;1.80;;;30.20;42.40;;;;;;5071968;28;20209;-58
2022/07/15 09:06:37;;;;;;;6.15;1.38;;;29.00;44.00;;;;;;5071871;28;20697;-58
2022/07/15 09:09:25;;;;;;;3.47;1.60;;;28.50;44.70;;;;;;5072157;28;20220;-58
2022/07/15 09:11:57;;;;;;;5.75;2.22;;;27.90;45.70;;;;;;5071885;28;20208;-62
2022/07/15 09:14:25;;;;;;;15.57;4.70;;;27.50;46.60;;;;;;5071706;28;20669;-58
2022/07/15 09:17:18;;;;;;;24.00;6.82;;;27.10;46.80;;;;;;5071963;28;20765;-57
2022/07/15 09:20:08;;;;;;;4.10;1.75;;;26.60;47.60;;;;;;5072271;28;20208;-58
2022/07/15 09:22:48;;;;;;;26.08;7.75;;;26.30;48.30;;;;;;5075392;28;20201;-58
2022/07/15 09:25:14;;;;;;;3.40;1.40;;;26.00;49.10;;;;;;5075501;28;20229;-58
2022/07/15 09:27:44;;;;;;;5.28;1.95;;;25.90;49.30;;;;;;5075272;28;20221;-58
2022/07/15 09:36:04;;;;;;;2.90;1.50;;;26.00;49.10;;;;;;5075335;28;20350;-57
2022/07/15 09:38:43;;;;;;;4.20;1.60;;;26.00;48.90;;;;;;5075359;28;20215;-57
2022/07/15 09:41:20;;;;;;;12.27;5.15;;;25.90;49.30;;;;;;5075203;28;20227;-57
2022/07/15 09:43:50;;;;;;;4.03;1.73;;;25.80;50.10;;;;;;5074678;28;20205;-57
2022/07/15 09:46:17;;;;;;;33.47;9.10;;;25.90;50.00;;;;;;5075246;28;20531;-57
2022/07/15 09:48:48;;;;;;;3.80;1.90;;;25.90;50.80;;;;;;5075037;28;20201;-56
2022/07/15 09:51:15;;;;;;;11.88;4.47;;;26.10;49.70;;;;;;5075185;28;20236;-57
2022/07/15 09:53:43;;;;;;;4.85;1.90;;;26.20;50.10;;;;;;5074999;28;20216;-57
2022/07/15 09:56:12;;;;;;;5.10;1.73;;;26.30;50.00;;;;;;5074700;28;20225;-57
2022/07/15 09:58:40;;;;;;;3.45;1.65;;;26.50;49.10;;;;;;5074690;28;20211;-57
2022/07/15 10:01:08;;;;;;;10.35;3.95;;;26.60;49.40;;;;;;5074839;28;20209;-57
2022/07/15 10:03:36;;;;;;;22.00;5.88;;;26.70;50.70;;;;;;5074830;28;20207;-58
2022/07/15 10:06:05;;;;;;;9.10;3.45;;;26.80;50.30;;;;;;5074871;28;20228;-57
2022/07/15 10:08:34;;;;;;;3.85;1.88;;;27.00;48.80;;;;;;5074978;28;20228;-57
2022/07/15 10:11:01;;;;;;;9.88;2.75;;;27.20;48.00;;;;;;5074395;28;20208;-56
2022/07/15 10:14:10;;;;;;;4.35;1.60;;;27.30;48.10;;;;;;5073994;28;20201;-57
2022/07/15 10:17:07;;;;;;;5.70;1.60;;;27.20;48.00;;;;;;5074161;28;20613;-57
2022/07/15 10:19:50;;;;;;;10.45;3.95;;;27.10;48.00;;;;;;5075013;28;20204;-57
2022/07/15 10:22:26;;;;;;;6.07;1.65;;;27.00;48.80;;;;;;5074562;28;20216;-57
2022/07/15 10:25:06;;;;;;;5.25;2.40;;;27.10;48.10;;;;;;5074384;28;20236;-56
2022/07/15 10:27:46;;;;;;;12.02;2.60;;;27.30;49.40;;;;;;5074042;28;20274;-57
2022/07/15 10:30:20;;;;;;;3.03;1.73;;;27.50;48.20;;;;;;5074111;28;20307;-57
2022/07/15 10:33:13;;;;;;;4.22;2.13;;;27.20;48.00;;;;;;5074398;28;20592;-57
2022/07/15 10:35:43;;;;;;;4.22;2.28;;;27.00;48.80;;;;;;5074520;28;20252;-57
2022/07/15 10:38:27;;;;;;;4.72;1.70;;;27.00;47.90;;;;;;5074460;28;20205;-60
2022/07/15 10:41:02;;;;;;;10.18;2.05;;;26.90;48.70;;;;;;5074871;28;20213;-55
2022/07/15 10:43:49;;;;;;;4.78;2.10;;;26.80;48.80;;;;;;5074870;28;20212;-56
2022/07/15 10:46:28;;;;;;;10.60;4.00;;;26.70;49.20;;;;;;5075269;28;20237;-55
2022/07/15 10:49:29;;;;;;;3.58;1.42;;;26.70;50.90;;;;;;5075335;28;20727;-55
2022/07/15 10:51:55;;;;;;;3.35;1.98;;;26.80;49.60;;;;;;5075466;28;20291;-56
2022/07/15 10:54:51;;;;;;;7.15;1.83;;;27.00;48.90;;;;;;5074981;28;20459;-57
2022/07/15 10:57:20;;;;;;;3.53;1.88;;;27.20;48.80;;;;;;5056662;28;20205;-57
2022/07/15 10:59:55;;;;;;;5.07;1.98;;;27.10;48.10;;;;;;5074357;28;20593;-57
2022/07/15 11:02:25;;;;;;;3.80;2.20;;;27.10;48.20;;;;;;5074251;28;20228;-57
2022/07/15 11:04:53;;;;;;;2.90;1.80;;;27.20;49.00;;;;;;5073279;28;20236;-57
2022/07/15 11:07:31;;;;;;;7.43;2.95;;;27.50;48.20;;;;;;5073623;28;20235;-57
2022/07/15 11:10:15;;;;;;;6.50;2.00;;;27.80;48.30;;;;;;5074113;28;20267;-57
2022/07/15 11:13:03;;;;;;;3.53;1.90;;;28.00;47.30;;;;;;5073818;28;20208;-57
2022/07/15 11:15:30;;;;;;;3.00;1.83;;;28.10;47.70;;;;;;5073363;28;20229;-57
2022/07/15 11:17:58;;;;;;;5.40;1.60;;;28.40;47.10;;;;;;5073206;28;20205;-57
2022/07/15 11:20:28;;;;;;;4.40;1.60;;;28.50;46.90;;;;;;5073496;28;20287;-57
2022/07/15 11:22:57;;;;;;;3.10;1.67;;;28.50;47.30;;;;;;5073004;28;20216;-57
2022/07/15 11:25:26;;;;;;;4.47;1.80;;;28.30;47.50;;;;;;5073327;28;20232;-57
2022/07/15 11:28:01;;;;;;;2.75;1.83;;;28.30;47.50;;;;;;5073432;28;20248;-57
2022/07/15 11:30:32;;;;;;;3.40;1.60;;;28.20;47.60;;;;;;5073730;28;20213;-57
2022/07/15 11:33:00;;;;;;;2.50;1.50;;;28.20;48.50;;;;;;5073698;28;20227;-59
2022/07/15 11:35:29;;;;;;;4.00;2.10;;;27.90;48.50;;;;;;5073753;28;20229;-57
2022/07/15 11:38:01;;;;;;;3.08;1.73;;;27.70;48.30;;;;;;5073807;28;20262;-57
2022/07/15 11:46:04;;;;;;;5.93;2.17;;;27.70;49.30;;;;;;5072679;28;20263;-57
2022/07/15 11:48:35;;;;;;;7.65;1.95;;;27.60;48.60;;;;;;5073180;28;20221;-57
2022/07/15 11:51:02;;;;;;;4.55;2.47;;;27.70;48.80;;;;;;5073893;28;20227;-57
2022/07/15 11:53:28;;;;;;;5.68;2.83;;;27.90;49.20;;;;;;5072790;28;20213;-56
2022/07/15 11:55:58;;;;;;;3.90;1.88;;;28.10;49.50;;;;;;5073505;28;20236;-57
2022/07/15 11:58:26;;;;;;;6.00;1.90;;;28.20;48.90;;;;;;5073658;28;20212;-56
2022/07/15 12:00:53;;;;;;;6.00;1.85;;;28.40;48.00;;;;;;5073876;28;20212;-57
2022/07/15 12:03:20;;;;;;;6.97;1.90;;;28.20;48.30;;;;;;5073158;28;20204;-56
2022/07/15 12:06:00;;;;;;;7.38;2.25;;;28.00;48.50;;;;;;5072984;28;20225;-57
2022/07/15 12:08:38;;;;;;;6.90;1.73;;;28.00;48.50;;;;;;5072809;28;20260;-56
2022/07/15 12:11:17;;;;;;;4.28;2.10;;;28.00;48.50;;;;;;5072693;28;20685;-56
2022/07/15 12:13:46;;;;;;;5.13;2.28;;;28.10;48.30;;;;;;5072702;28;20205;-57
2022/07/15 12:16:13;;;;;;;4.40;1.90;;;28.20;48.30;;;;;;5073517;28;20232;-58
2022/07/15 12:18:41;;;;;;;5.68;2.25;;;28.50;47.60;;;;;;5073179;28;20283;-57
2022/07/15 12:21:08;;;;;;;5.75;2.67;;;28.60;48.10;;;;;;5072884;28;20216;-57
2022/07/15 12:23:35;;;;;;;4.57;1.98;;;28.80;47.70;;;;;;5072568;28;20262;-57
2022/07/15 12:26:03;;;;;;;5.20;1.60;;;28.70;47.30;;;;;;5074003;28;20263;-56
2022/07/15 12:28:33;;;;;;;4.10;1.65;;;28.60;47.60;;;;;;5074341;28;20574;-56
2022/07/15 12:31:00;;;;;;;5.65;2.10;;;28.50;48.10;;;;;;5074276;28;20212;-57
2022/07/15 12:33:27;;;;;;;4.65;2.00;;;28.20;48.10;;;;;;5073134;28;20200;-57
2022/07/15 12:36:19;;;;;;;6.13;1.83;;;27.90;48.90;;;;;;5072442;28;20256;-56
2022/07/15 12:39:01;;;;;;;4.35;1.77;;;27.70;48.80;;;;;;5072643;28;20215;-56
2022/07/15 12:41:28;;;;;;;3.97;2.08;;;27.70;49.20;;;;;;5072460;28;20223;-57
2022/07/15 12:43:57;;;;;;;5.80;1.98;;;27.70;49.20;;;;;;5072435;28;20205;-57
2022/07/15 12:46:52;;;;;;;6.38;3.25;;;27.80;49.40;;;;;;5071970;28;20229;-57
2022/07/15 12:49:38;;;;;;;5.65;1.58;;;27.90;50.20;;;;;;5072049;28;20231;-57
2022/07/15 12:52:23;;;;;;;9.35;3.15;;;27.90;48.20;;;;;;5072106;28;20236;-57
2022/07/15 12:54:52;;;;;;;5.60;2.03;;;28.00;49.10;;;;;;5072292;28;20231;-56
2022/07/15 12:57:20;;;;;;;8.55;2.03;;;28.00;49.20;;;;;;5075845;28;20201;-57
2022/07/15 12:59:52;;;;;;;6.80;1.80;;;28.10;48.10;;;;;;5076210;28;20208;-57
2022/07/15 13:02:19;;;;;;;4.93;2.00;;;28.10;48.20;;;;;;5075903;28;20322;-56
2022/07/15 13:04:46;;;;;;;3.78;1.98;;;28.20;48.60;;;;;;5075346;28;20232;-57
2022/07/15 13:07:13;;;;;;;4.35;1.98;;;28.20;47.90;;;;;;5075615;28;20225;-58
2022/07/15 13:09:39;;;;;;;4.13;1.80;;;28.30;48.70;;;;;;5075752;28;20213;-58
2022/07/15 13:12:08;;;;;;;2.40;1.60;;;28.50;48.00;;;;;;5075534;28;20684;-58
2022/07/15 13:14:35;;;;;;;5.30;1.70;;;28.70;47.30;;;;;;5075346;28;20224;-59